sensor_id;sensor_type;location;lat;lon;timestamp;P1;durP1;ratioP1;P2;durP2;ratioP2
79025;SDS011;71097;44.760;37.726;2023-08-06T00:01:01;6.57;;;4.00;;
79025;SDS011;71097;44.760;37.726;2023-08-06T00:02:03;5.35;;;3.95;;
79025;SDS011;71097;44.760;37.726;2023-08-06T00:03:07;5.60;;;4.15;;
79025;SDS011;71097;44.760;37.726;2023-08-06T00:04:09;7.28;;;4.05;;
79025;SDS011;71097;44.760;37.726;2023-08-06T00:05:10;5.40;;;3.90;;
79025;SDS011;71097;44.760;37.726;2023-08-06T00:06:11;5.65;;;3.60;;
79025;SDS011;71097;44.760;37.726;2023-08-06T00:07:13;5.03;;;3.53;;
79025;SDS011;71097;44.760;37.726;2023-08-06T00:08:14;4.50;;;3.42;;
79025;SDS011;71097;44.760;37.726;2023-08-06T00:09:16;5.30;;;4.28;;
79025;SDS011;71097;44.760;37.726;2023-08-06T00:10:17;5.47;;;3.58;;
79025;SDS011;71097;44.760;37.726;2023-08-06T00:11:19;6.72;;;4.38;;
79025;SDS011;71097;44.760;37.726;2023-08-06T00:12:20;5.55;;;3.50;;
79025;SDS011;71097;44.760;37.726;2023-08-06T00:13:22;6.10;;;4.03;;
79025;SDS011;71097;44.760;37.726;2023-08-06T00:14:23;5.40;;;3.70;;
79025;SDS011;71097;44.760;37.726;2023-08-06T00:15:25;4.95;;;3.97;;
79025;SDS011;71097;44.760;37.726;2023-08-06T00:16:26;5.97;;;3.40;;
79025;SDS011;71097;44.760;37.726;2023-08-06T00:17:28;5.38;;;3.80;;
79025;SDS011;71097;44.760;37.726;2023-08-06T00:18:29;5.65;;;4.00;;
79025;SDS011;71097;44.760;37.726;2023-08-06T00:19:31;4.78;;;3.83;;
79025;SDS011;71097;44.760;37.726;2023-08-06T00:20:33;5.35;;;3.90;;
79025;SDS011;71097;44.760;37.726;2023-08-06T00:21:34;5.60;;;4.10;;
79025;SDS011;71097;44.760;37.726;2023-08-06T00:22:36;4.95;;;3.78;;
79025;SDS011;71097;44.760;37.726;2023-08-06T00:23:39;6.85;;;4.10;;
79025;SDS011;71097;44.760;37.726;2023-08-06T00:24:40;5.13;;;4.18;;
79025;SDS011;71097;44.760;37.726;2023-08-06T00:25:42;5.30;;;4.00;;
79025;SDS011;71097;44.760;37.726;2023-08-06T00:26:43;6.65;;;4.28;;
79025;SDS011;71097;44.760;37.726;2023-08-06T00:27:45;5.53;;;3.70;;
79025;SDS011;71097;44.760;37.726;2023-08-06T00:28:46;5.65;;;3.78;;
79025;SDS011;71097;44.760;37.726;2023-08-06T00:29:48;6.40;;;4.13;;
79025;SDS011;71097;44.760;37.726;2023-08-06T00:30:55;7.50;;;4.15;;
79025;SDS011;71097;44.760;37.726;2023-08-06T00:32:03;6.47;;;3.95;;
79025;SDS011;71097;44.760;37.726;2023-08-06T00:33:04;5.55;;;4.03;;
79025;SDS011;71097;44.760;37.726;2023-08-06T00:34:06;5.75;;;4.28;;
79025;SDS011;71097;44.760;37.726;2023-08-06T00:35:08;5.35;;;3.72;;
79025;SDS011;71097;44.760;37.726;2023-08-06T00:36:10;5.50;;;3.88;;
79025;SDS011;71097;44.760;37.726;2023-08-06T00:37:11;5.03;;;3.95;;
79025;SDS011;71097;44.760;37.726;2023-08-06T00:38:13;5.15;;;3.72;;
79025;SDS011;71097;44.760;37.726;2023-08-06T00:39:35;6.43;;;4.43;;
79025;SDS011;71097;44.760;37.726;2023-08-06T00:40:37;5.93;;;3.95;;
79025;SDS011;71097;44.760;37.726;2023-08-06T00:41:38;5.55;;;4.20;;
79025;SDS011;71097;44.760;37.726;2023-08-06T00:42:57;5.45;;;3.75;;
79025;SDS011;71097;44.760;37.726;2023-08-06T00:43:59;5.50;;;3.90;;
79025;SDS011;71097;44.760;37.726;2023-08-06T00:45:01;6.30;;;4.45;;
79025;SDS011;71097;44.760;37.726;2023-08-06T00:46:08;5.93;;;4.22;;
79025;SDS011;71097;44.760;37.726;2023-08-06T00:47:10;5.50;;;3.63;;
79025;SDS011;71097;44.760;37.726;2023-08-06T00:48:11;5.72;;;3.78;;
79025;SDS011;71097;44.760;37.726;2023-08-06T00:49:13;5.28;;;3.70;;
79025;SDS011;71097;44.760;37.726;2023-08-06T00:50:14;5.40;;;4.15;;
79025;SDS011;71097;44.760;37.726;2023-08-06T00:51:17;5.20;;;3.90;;
79025;SDS011;71097;44.760;37.726;2023-08-06T00:52:19;5.32;;;3.70;;
79025;SDS011;71097;44.760;37.726;2023-08-06T00:53:20;6.95;;;4.65;;
79025;SDS011;71097;44.760;37.726;2023-08-06T00:54:22;6.47;;;3.53;;
79025;SDS011;71097;44.760;37.726;2023-08-06T00:55:25;6.78;;;3.95;;
79025;SDS011;71097;44.760;37.726;2023-08-06T00:56:27;6.90;;;3.78;;
79025;SDS011;71097;44.760;37.726;2023-08-06T00:57:49;5.43;;;3.85;;
79025;SDS011;71097;44.760;37.726;2023-08-06T00:58:52;6.32;;;4.13;;
79025;SDS011;71097;44.760;37.726;2023-08-06T00:59:53;6.68;;;3.75;;
79025;SDS011;71097;44.760;37.726;2023-08-06T01:00:55;5.45;;;3.85;;
79025;SDS011;71097;44.760;37.726;2023-08-06T01:01:58;4.53;;;3.33;;
79025;SDS011;71097;44.760;37.726;2023-08-06T01:03:01;5.03;;;3.50;;
79025;SDS011;71097;44.760;37.726;2023-08-06T01:04:02;7.30;;;4.30;;
79025;SDS011;71097;44.760;37.726;2023-08-06T01:05:04;5.97;;;3.47;;
79025;SDS011;71097;44.760;37.726;2023-08-06T01:06:06;5.72;;;4.47;;
79025;SDS011;71097;44.760;37.726;2023-08-06T01:09:50;6.05;;;4.38;;
79025;SDS011;71097;44.760;37.726;2023-08-06T01:14:26;6.00;;;4.43;;
79025;SDS011;71097;44.760;37.726;2023-08-06T01:15:35;5.55;;;3.90;;
79025;SDS011;71097;44.760;37.726;2023-08-06T01:16:48;5.55;;;4.28;;
79025;SDS011;71097;44.760;37.726;2023-08-06T01:17:51;4.95;;;3.88;;
79025;SDS011;71097;44.760;37.726;2023-08-06T01:18:53;7.75;;;3.85;;
79025;SDS011;71097;44.760;37.726;2023-08-06T01:19:55;7.57;;;4.32;;
79025;SDS011;71097;44.760;37.726;2023-08-06T01:20:57;6.38;;;3.85;;
79025;SDS011;71097;44.760;37.726;2023-08-06T01:21:58;6.32;;;4.18;;
79025;SDS011;71097;44.760;37.726;2023-08-06T01:23:00;7.03;;;3.88;;
79025;SDS011;71097;44.760;37.726;2023-08-06T01:24:02;7.53;;;4.40;;
79025;SDS011;71097;44.760;37.726;2023-08-06T01:25:26;5.97;;;4.03;;
79025;SDS011;71097;44.760;37.726;2023-08-06T01:26:51;6.50;;;4.35;;
79025;SDS011;71097;44.760;37.726;2023-08-06T01:28:07;6.60;;;4.60;;
79025;SDS011;71097;44.760;37.726;2023-08-06T01:29:25;6.60;;;4.20;;
79025;SDS011;71097;44.760;37.726;2023-08-06T01:30:34;5.38;;;3.33;;
79025;SDS011;71097;44.760;37.726;2023-08-06T01:31:43;6.15;;;4.07;;
79025;SDS011;71097;44.760;37.726;2023-08-06T01:32:56;6.20;;;3.70;;
79025;SDS011;71097;44.760;37.726;2023-08-06T01:34:02;5.35;;;3.85;;
79025;SDS011;71097;44.760;37.726;2023-08-06T01:35:06;6.05;;;4.63;;
79025;SDS011;71097;44.760;37.726;2023-08-06T01:36:09;5.28;;;4.18;;
79025;SDS011;71097;44.760;37.726;2023-08-06T01:37:12;6.63;;;4.95;;
79025;SDS011;71097;44.760;37.726;2023-08-06T01:39:35;5.43;;;3.65;;
79025;SDS011;71097;44.760;37.726;2023-08-06T01:40:38;5.97;;;4.00;;
79025;SDS011;71097;44.760;37.726;2023-08-06T01:41:39;6.70;;;4.85;;
79025;SDS011;71097;44.760;37.726;2023-08-06T01:42:41;5.45;;;4.15;;
79025;SDS011;71097;44.760;37.726;2023-08-06T01:43:43;6.70;;;4.45;;
79025;SDS011;71097;44.760;37.726;2023-08-06T01:44:44;6.60;;;4.53;;
79025;SDS011;71097;44.760;37.726;2023-08-06T01:45:46;7.38;;;4.38;;
79025;SDS011;71097;44.760;37.726;2023-08-06T01:46:47;6.57;;;4.60;;
79025;SDS011;71097;44.760;37.726;2023-08-06T01:47:48;5.95;;;4.28;;
79025;SDS011;71097;44.760;37.726;2023-08-06T01:48:50;5.68;;;4.38;;
79025;SDS011;71097;44.760;37.726;2023-08-06T01:49:51;7.78;;;4.57;;
79025;SDS011;71097;44.760;37.726;2023-08-06T01:50:53;5.18;;;4.00;;
79025;SDS011;71097;44.760;37.726;2023-08-06T01:51:55;6.80;;;4.65;;
79025;SDS011;71097;44.760;37.726;2023-08-06T01:52:56;5.72;;;4.55;;
79025;SDS011;71097;44.760;37.726;2023-08-06T01:53:58;5.60;;;3.67;;
79025;SDS011;71097;44.760;37.726;2023-08-06T01:54:59;6.90;;;4.18;;
79025;SDS011;71097;44.760;37.726;2023-08-06T01:56:01;6.78;;;3.85;;
79025;SDS011;71097;44.760;37.726;2023-08-06T01:57:02;5.78;;;4.15;;
79025;SDS011;71097;44.760;37.726;2023-08-06T01:58:04;6.10;;;4.22;;
79025;SDS011;71097;44.760;37.726;2023-08-06T01:59:06;6.32;;;4.35;;
79025;SDS011;71097;44.760;37.726;2023-08-06T02:00:07;6.57;;;4.90;;
79025;SDS011;71097;44.760;37.726;2023-08-06T02:01:18;6.82;;;4.22;;
79025;SDS011;71097;44.760;37.726;2023-08-06T02:02:20;6.28;;;4.82;;
79025;SDS011;71097;44.760;37.726;2023-08-06T02:03:22;5.32;;;3.80;;
79025;SDS011;71097;44.760;37.726;2023-08-06T02:04:23;6.57;;;4.50;;
79025;SDS011;71097;44.760;37.726;2023-08-06T02:05:25;5.60;;;4.10;;
79025;SDS011;71097;44.760;37.726;2023-08-06T02:06:26;7.90;;;4.93;;
79025;SDS011;71097;44.760;37.726;2023-08-06T02:07:28;5.78;;;4.25;;
79025;SDS011;71097;44.760;37.726;2023-08-06T02:08:31;5.85;;;4.80;;
79025;SDS011;71097;44.760;37.726;2023-08-06T02:09:32;6.18;;;4.50;;
79025;SDS011;71097;44.760;37.726;2023-08-06T02:10:35;6.47;;;4.65;;
79025;SDS011;71097;44.760;37.726;2023-08-06T02:11:36;6.55;;;4.68;;
79025;SDS011;71097;44.760;37.726;2023-08-06T02:12:38;6.28;;;4.03;;
79025;SDS011;71097;44.760;37.726;2023-08-06T02:13:39;6.18;;;4.78;;
79025;SDS011;71097;44.760;37.726;2023-08-06T02:14:41;6.45;;;4.82;;
79025;SDS011;71097;44.760;37.726;2023-08-06T02:15:45;6.20;;;4.47;;
79025;SDS011;71097;44.760;37.726;2023-08-06T02:16:50;8.30;;;5.28;;
79025;SDS011;71097;44.760;37.726;2023-08-06T02:17:51;5.88;;;4.55;;
79025;SDS011;71097;44.760;37.726;2023-08-06T02:18:53;6.53;;;4.55;;
79025;SDS011;71097;44.760;37.726;2023-08-06T02:20:21;5.55;;;4.38;;
79025;SDS011;71097;44.760;37.726;2023-08-06T02:21:22;7.13;;;5.38;;
79025;SDS011;71097;44.760;37.726;2023-08-06T02:22:24;6.47;;;4.53;;
79025;SDS011;71097;44.760;37.726;2023-08-06T02:23:26;6.03;;;4.50;;
79025;SDS011;71097;44.760;37.726;2023-08-06T02:24:28;5.50;;;4.50;;
79025;SDS011;71097;44.760;37.726;2023-08-06T02:25:29;6.65;;;4.82;;
79025;SDS011;71097;44.760;37.726;2023-08-06T02:26:31;6.50;;;4.22;;
79025;SDS011;71097;44.760;37.726;2023-08-06T02:27:32;6.63;;;4.80;;
79025;SDS011;71097;44.760;37.726;2023-08-06T02:28:34;7.25;;;4.90;;
79025;SDS011;71097;44.760;37.726;2023-08-06T02:29:35;6.95;;;4.60;;
79025;SDS011;71097;44.760;37.726;2023-08-06T02:30:37;5.50;;;4.28;;
79025;SDS011;71097;44.760;37.726;2023-08-06T02:31:41;5.72;;;4.35;;
79025;SDS011;71097;44.760;37.726;2023-08-06T02:32:48;5.95;;;4.65;;
79025;SDS011;71097;44.760;37.726;2023-08-06T02:33:49;6.13;;;4.50;;
79025;SDS011;71097;44.760;37.726;2023-08-06T02:34:51;6.30;;;4.18;;
79025;SDS011;71097;44.760;37.726;2023-08-06T02:35:58;7.20;;;4.82;;
79025;SDS011;71097;44.760;37.726;2023-08-06T02:37:01;6.38;;;3.75;;
79025;SDS011;71097;44.760;37.726;2023-08-06T02:38:02;8.30;;;4.50;;
79025;SDS011;71097;44.760;37.726;2023-08-06T02:39:04;6.72;;;4.30;;
79025;SDS011;71097;44.760;37.726;2023-08-06T02:40:05;7.45;;;4.65;;
79025;SDS011;71097;44.760;37.726;2023-08-06T02:41:07;5.82;;;4.22;;
79025;SDS011;71097;44.760;37.726;2023-08-06T02:42:09;6.75;;;4.60;;
79025;SDS011;71097;44.760;37.726;2023-08-06T02:43:10;6.30;;;4.30;;
79025;SDS011;71097;44.760;37.726;2023-08-06T02:44:12;6.88;;;5.00;;
79025;SDS011;71097;44.760;37.726;2023-08-06T02:45:14;5.95;;;4.40;;
79025;SDS011;71097;44.760;37.726;2023-08-06T02:46:15;9.88;;;4.90;;
79025;SDS011;71097;44.760;37.726;2023-08-06T02:47:17;7.30;;;5.18;;
79025;SDS011;71097;44.760;37.726;2023-08-06T02:48:19;7.50;;;4.10;;
79025;SDS011;71097;44.760;37.726;2023-08-06T02:49:21;5.97;;;4.75;;
79025;SDS011;71097;44.760;37.726;2023-08-06T02:50:22;8.60;;;5.10;;
79025;SDS011;71097;44.760;37.726;2023-08-06T02:51:24;6.95;;;4.88;;
79025;SDS011;71097;44.760;37.726;2023-08-06T02:52:25;6.97;;;4.90;;
79025;SDS011;71097;44.760;37.726;2023-08-06T02:53:27;8.15;;;4.80;;
79025;SDS011;71097;44.760;37.726;2023-08-06T02:54:28;7.05;;;4.25;;
79025;SDS011;71097;44.760;37.726;2023-08-06T02:55:50;5.90;;;4.75;;
79025;SDS011;71097;44.760;37.726;2023-08-06T02:56:57;5.75;;;4.47;;
79025;SDS011;71097;44.760;37.726;2023-08-06T02:58:02;6.00;;;4.20;;
79025;SDS011;71097;44.760;37.726;2023-08-06T02:59:08;7.20;;;4.43;;
79025;SDS011;71097;44.760;37.726;2023-08-06T03:00:45;7.30;;;5.05;;
79025;SDS011;71097;44.760;37.726;2023-08-06T03:01:47;6.35;;;5.05;;
79025;SDS011;71097;44.760;37.726;2023-08-06T03:02:55;7.72;;;5.65;;
79025;SDS011;71097;44.760;37.726;2023-08-06T03:04:04;6.95;;;5.38;;
79025;SDS011;71097;44.760;37.726;2023-08-06T03:05:11;7.57;;;4.45;;
79025;SDS011;71097;44.760;37.726;2023-08-06T03:06:17;6.60;;;4.10;;
79025;SDS011;71097;44.760;37.726;2023-08-06T03:07:22;6.53;;;4.85;;
79025;SDS011;71097;44.760;37.726;2023-08-06T03:08:29;7.15;;;4.57;;
79025;SDS011;71097;44.760;37.726;2023-08-06T03:09:31;6.15;;;4.55;;
79025;SDS011;71097;44.760;37.726;2023-08-06T03:10:33;6.55;;;4.55;;
79025;SDS011;71097;44.760;37.726;2023-08-06T03:11:37;8.43;;;4.72;;
79025;SDS011;71097;44.760;37.726;2023-08-06T03:12:43;8.27;;;5.00;;
79025;SDS011;71097;44.760;37.726;2023-08-06T03:13:45;9.32;;;4.85;;
79025;SDS011;71097;44.760;37.726;2023-08-06T03:15:07;6.43;;;4.28;;
79025;SDS011;71097;44.760;37.726;2023-08-06T03:16:09;6.40;;;5.10;;
79025;SDS011;71097;44.760;37.726;2023-08-06T03:17:31;7.35;;;5.82;;
79025;SDS011;71097;44.760;37.726;2023-08-06T03:18:33;7.60;;;4.88;;
79025;SDS011;71097;44.760;37.726;2023-08-06T03:19:58;7.15;;;5.35;;
79025;SDS011;71097;44.760;37.726;2023-08-06T03:21:00;8.98;;;4.93;;
79025;SDS011;71097;44.760;37.726;2023-08-06T03:22:04;7.22;;;4.70;;
79025;SDS011;71097;44.760;37.726;2023-08-06T03:23:08;8.25;;;5.18;;
79025;SDS011;71097;44.760;37.726;2023-08-06T03:24:10;6.70;;;5.13;;
79025;SDS011;71097;44.760;37.726;2023-08-06T03:25:13;8.63;;;5.45;;
79025;SDS011;71097;44.760;37.726;2023-08-06T03:26:19;6.65;;;5.25;;
79025;SDS011;71097;44.760;37.726;2023-08-06T03:27:41;8.18;;;4.40;;
79025;SDS011;71097;44.760;37.726;2023-08-06T03:28:43;6.10;;;4.85;;
79025;SDS011;71097;44.760;37.726;2023-08-06T03:29:45;7.03;;;4.53;;
79025;SDS011;71097;44.760;37.726;2023-08-06T03:30:58;6.63;;;5.00;;
79025;SDS011;71097;44.760;37.726;2023-08-06T03:32:07;6.10;;;4.57;;
79025;SDS011;71097;44.760;37.726;2023-08-06T03:33:09;8.18;;;4.43;;
79025;SDS011;71097;44.760;37.726;2023-08-06T03:34:11;7.20;;;4.85;;
79025;SDS011;71097;44.760;37.726;2023-08-06T03:35:13;6.68;;;4.30;;
79025;SDS011;71097;44.760;37.726;2023-08-06T03:36:14;7.68;;;4.88;;
79025;SDS011;71097;44.760;37.726;2023-08-06T03:37:16;7.25;;;4.60;;
79025;SDS011;71097;44.760;37.726;2023-08-06T03:38:18;7.72;;;4.55;;
79025;SDS011;71097;44.760;37.726;2023-08-06T03:39:19;8.55;;;4.85;;
79025;SDS011;71097;44.760;37.726;2023-08-06T03:40:21;7.25;;;5.20;;
79025;SDS011;71097;44.760;37.726;2023-08-06T03:41:23;7.82;;;5.40;;
79025;SDS011;71097;44.760;37.726;2023-08-06T03:42:24;7.20;;;5.30;;
79025;SDS011;71097;44.760;37.726;2023-08-06T03:43:26;7.85;;;6.05;;
79025;SDS011;71097;44.760;37.726;2023-08-06T03:44:28;6.47;;;5.25;;
79025;SDS011;71097;44.760;37.726;2023-08-06T03:45:29;10.13;;;4.95;;
79025;SDS011;71097;44.760;37.726;2023-08-06T03:46:31;7.47;;;5.28;;
79025;SDS011;71097;44.760;37.726;2023-08-06T03:47:37;6.00;;;3.95;;
79025;SDS011;71097;44.760;37.726;2023-08-06T03:48:39;6.20;;;4.43;;
79025;SDS011;71097;44.760;37.726;2023-08-06T03:49:40;7.18;;;4.20;;
79025;SDS011;71097;44.760;37.726;2023-08-06T03:50:43;8.73;;;4.50;;
79025;SDS011;71097;44.760;37.726;2023-08-06T03:51:47;6.50;;;4.70;;
79025;SDS011;71097;44.760;37.726;2023-08-06T03:52:49;7.05;;;5.60;;
79025;SDS011;71097;44.760;37.726;2023-08-06T03:53:50;8.82;;;5.70;;
79025;SDS011;71097;44.760;37.726;2023-08-06T03:54:52;7.47;;;5.85;;
79025;SDS011;71097;44.760;37.726;2023-08-06T03:55:53;7.72;;;5.32;;
79025;SDS011;71097;44.760;37.726;2023-08-06T03:56:57;6.10;;;5.50;;
79025;SDS011;71097;44.760;37.726;2023-08-06T03:57:58;7.00;;;5.57;;
79025;SDS011;71097;44.760;37.726;2023-08-06T03:58:59;6.28;;;4.85;;
79025;SDS011;71097;44.760;37.726;2023-08-06T04:00:02;6.93;;;5.03;;
79025;SDS011;71097;44.760;37.726;2023-08-06T04:01:15;6.18;;;5.10;;
79025;SDS011;71097;44.760;37.726;2023-08-06T04:02:20;7.32;;;5.65;;
79025;SDS011;71097;44.760;37.726;2023-08-06T04:03:41;7.35;;;5.22;;
79025;SDS011;71097;44.760;37.726;2023-08-06T04:05:03;7.47;;;4.97;;
79025;SDS011;71097;44.760;37.726;2023-08-06T04:06:05;8.52;;;5.05;;
79025;SDS011;71097;44.760;37.726;2023-08-06T04:07:08;6.80;;;4.97;;
79025;SDS011;71097;44.760;37.726;2023-08-06T04:08:09;6.75;;;5.00;;
79025;SDS011;71097;44.760;37.726;2023-08-06T04:09:11;6.72;;;4.50;;
79025;SDS011;71097;44.760;37.726;2023-08-06T04:10:12;7.15;;;4.47;;
79025;SDS011;71097;44.760;37.726;2023-08-06T04:11:14;6.75;;;4.50;;
79025;SDS011;71097;44.760;37.726;2023-08-06T04:12:16;6.38;;;4.55;;
79025;SDS011;71097;44.760;37.726;2023-08-06T04:13:21;6.88;;;4.85;;
79025;SDS011;71097;44.760;37.726;2023-08-06T04:14:22;5.75;;;4.03;;
79025;SDS011;71097;44.760;37.726;2023-08-06T04:15:24;7.82;;;5.68;;
79025;SDS011;71097;44.760;37.726;2023-08-06T04:16:25;5.80;;;4.72;;
79025;SDS011;71097;44.760;37.726;2023-08-06T04:17:27;6.38;;;4.72;;
79025;SDS011;71097;44.760;37.726;2023-08-06T04:18:28;7.10;;;4.53;;
79025;SDS011;71097;44.760;37.726;2023-08-06T04:19:30;9.73;;;4.90;;
79025;SDS011;71097;44.760;37.726;2023-08-06T04:20:31;8.35;;;4.85;;
79025;SDS011;71097;44.760;37.726;2023-08-06T04:21:53;6.85;;;4.80;;
79025;SDS011;71097;44.760;37.726;2023-08-06T04:22:55;7.68;;;5.38;;
79025;SDS011;71097;44.760;37.726;2023-08-06T04:23:56;7.13;;;5.47;;
79025;SDS011;71097;44.760;37.726;2023-08-06T04:24:58;6.18;;;4.95;;
79025;SDS011;71097;44.760;37.726;2023-08-06T04:25:59;7.13;;;4.93;;
79025;SDS011;71097;44.760;37.726;2023-08-06T04:27:05;7.97;;;4.55;;
79025;SDS011;71097;44.760;37.726;2023-08-06T04:28:07;6.13;;;4.63;;
79025;SDS011;71097;44.760;37.726;2023-08-06T04:29:09;6.00;;;4.57;;
79025;SDS011;71097;44.760;37.726;2023-08-06T04:30:10;6.43;;;4.40;;
79025;SDS011;71097;44.760;37.726;2023-08-06T04:31:13;8.70;;;4.78;;
79025;SDS011;71097;44.760;37.726;2023-08-06T04:32:22;7.88;;;5.22;;
79025;SDS011;71097;44.760;37.726;2023-08-06T04:33:27;7.53;;;5.35;;
79025;SDS011;71097;44.760;37.726;2023-08-06T04:34:48;6.20;;;4.70;;
79025;SDS011;71097;44.760;37.726;2023-08-06T04:35:54;6.18;;;4.47;;
79025;SDS011;71097;44.760;37.726;2023-08-06T04:37:00;6.45;;;5.13;;
79025;SDS011;71097;44.760;37.726;2023-08-06T04:38:02;5.78;;;4.28;;
79025;SDS011;71097;44.760;37.726;2023-08-06T04:39:03;5.82;;;4.47;;
79025;SDS011;71097;44.760;37.726;2023-08-06T04:40:25;6.30;;;4.05;;
79025;SDS011;71097;44.760;37.726;2023-08-06T04:41:27;7.32;;;4.78;;
79025;SDS011;71097;44.760;37.726;2023-08-06T04:42:28;7.38;;;4.97;;
79025;SDS011;71097;44.760;37.726;2023-08-06T04:43:29;5.93;;;4.47;;
79025;SDS011;71097;44.760;37.726;2023-08-06T04:44:31;6.47;;;4.28;;
79025;SDS011;71097;44.760;37.726;2023-08-06T04:45:33;5.10;;;4.07;;
79025;SDS011;71097;44.760;37.726;2023-08-06T04:46:34;6.30;;;4.38;;
79025;SDS011;71097;44.760;37.726;2023-08-06T04:47:36;5.35;;;4.13;;
79025;SDS011;71097;44.760;37.726;2023-08-06T04:48:37;5.63;;;4.00;;
79025;SDS011;71097;44.760;37.726;2023-08-06T04:49:39;5.70;;;3.90;;
79025;SDS011;71097;44.760;37.726;2023-08-06T04:51:00;6.28;;;4.15;;
79025;SDS011;71097;44.760;37.726;2023-08-06T04:52:02;6.10;;;4.45;;
79025;SDS011;71097;44.760;37.726;2023-08-06T04:53:04;6.43;;;4.00;;
79025;SDS011;71097;44.760;37.726;2023-08-06T04:54:05;5.38;;;4.05;;
79025;SDS011;71097;44.760;37.726;2023-08-06T04:55:07;6.90;;;4.80;;
79025;SDS011;71097;44.760;37.726;2023-08-06T04:56:08;6.03;;;4.30;;
79025;SDS011;71097;44.760;37.726;2023-08-06T04:57:10;6.50;;;4.50;;
79025;SDS011;71097;44.760;37.726;2023-08-06T04:58:12;6.80;;;4.88;;
79025;SDS011;71097;44.760;37.726;2023-08-06T04:59:13;6.22;;;4.45;;
79025;SDS011;71097;44.760;37.726;2023-08-06T05:00:15;8.57;;;4.72;;
79025;SDS011;71097;44.760;37.726;2023-08-06T05:01:16;6.82;;;4.25;;
79025;SDS011;71097;44.760;37.726;2023-08-06T05:02:18;8.32;;;4.13;;
79025;SDS011;71097;44.760;37.726;2023-08-06T05:03:20;4.88;;;4.00;;
79025;SDS011;71097;44.760;37.726;2023-08-06T05:04:21;6.70;;;4.60;;
79025;SDS011;71097;44.760;37.726;2023-08-06T05:05:23;6.78;;;4.57;;
79025;SDS011;71097;44.760;37.726;2023-08-06T05:06:24;6.90;;;4.85;;
79025;SDS011;71097;44.760;37.726;2023-08-06T05:07:26;6.03;;;4.68;;
79025;SDS011;71097;44.760;37.726;2023-08-06T05:08:27;5.70;;;4.18;;
79025;SDS011;71097;44.760;37.726;2023-08-06T05:09:29;5.82;;;4.25;;
79025;SDS011;71097;44.760;37.726;2023-08-06T05:10:30;5.63;;;4.47;;
79025;SDS011;71097;44.760;37.726;2023-08-06T05:11:32;7.60;;;4.32;;
79025;SDS011;71097;44.760;37.726;2023-08-06T05:12:33;5.80;;;4.40;;
79025;SDS011;71097;44.760;37.726;2023-08-06T05:13:35;5.43;;;3.78;;
79025;SDS011;71097;44.760;37.726;2023-08-06T05:14:36;5.88;;;3.88;;
79025;SDS011;71097;44.760;37.726;2023-08-06T05:15:38;5.40;;;3.90;;
79025;SDS011;71097;44.760;37.726;2023-08-06T05:16:43;6.57;;;4.45;;
79025;SDS011;71097;44.760;37.726;2023-08-06T05:17:44;5.15;;;3.53;;
79025;SDS011;71097;44.760;37.726;2023-08-06T05:18:46;6.07;;;3.95;;
79025;SDS011;71097;44.760;37.726;2023-08-06T05:19:47;6.28;;;3.90;;
79025;SDS011;71097;44.760;37.726;2023-08-06T05:20:49;5.68;;;4.18;;
79025;SDS011;71097;44.760;37.726;2023-08-06T05:21:50;7.93;;;4.30;;
79025;SDS011;71097;44.760;37.726;2023-08-06T05:22:52;8.15;;;4.18;;
79025;SDS011;71097;44.760;37.726;2023-08-06T05:23:54;6.70;;;3.80;;
79025;SDS011;71097;44.760;37.726;2023-08-06T05:24:55;5.72;;;4.38;;
79025;SDS011;71097;44.760;37.726;2023-08-06T05:25:57;5.45;;;4.05;;
79025;SDS011;71097;44.760;37.726;2023-08-06T05:26:58;5.47;;;4.22;;
79025;SDS011;71097;44.760;37.726;2023-08-06T05:28:00;5.35;;;4.70;;
79025;SDS011;71097;44.760;37.726;2023-08-06T05:29:05;4.35;;;3.55;;
79025;SDS011;71097;44.760;37.726;2023-08-06T05:30:07;5.13;;;3.60;;
79025;SDS011;71097;44.760;37.726;2023-08-06T05:31:09;5.47;;;4.00;;
79025;SDS011;71097;44.760;37.726;2023-08-06T05:32:16;5.57;;;3.97;;
79025;SDS011;71097;44.760;37.726;2023-08-06T05:33:17;5.10;;;3.75;;
79025;SDS011;71097;44.760;37.726;2023-08-06T05:34:19;5.53;;;4.13;;
79025;SDS011;71097;44.760;37.726;2023-08-06T05:35:31;5.20;;;4.07;;
79025;SDS011;71097;44.760;37.726;2023-08-06T05:36:32;6.07;;;3.85;;
79025;SDS011;71097;44.760;37.726;2023-08-06T05:37:34;6.10;;;4.18;;
79025;SDS011;71097;44.760;37.726;2023-08-06T05:38:36;5.63;;;4.22;;
79025;SDS011;71097;44.760;37.726;2023-08-06T05:39:37;5.55;;;3.75;;
79025;SDS011;71097;44.760;37.726;2023-08-06T05:40:39;5.63;;;3.80;;
79025;SDS011;71097;44.760;37.726;2023-08-06T05:41:41;5.00;;;3.45;;
79025;SDS011;71097;44.760;37.726;2023-08-06T05:42:42;7.22;;;3.80;;
79025;SDS011;71097;44.760;37.726;2023-08-06T05:43:44;4.85;;;3.63;;
79025;SDS011;71097;44.760;37.726;2023-08-06T05:44:46;4.85;;;3.50;;
79025;SDS011;71097;44.760;37.726;2023-08-06T05:45:51;6.22;;;3.15;;
79025;SDS011;71097;44.760;37.726;2023-08-06T05:46:55;4.85;;;3.50;;
79025;SDS011;71097;44.760;37.726;2023-08-06T05:47:57;4.55;;;3.00;;
79025;SDS011;71097;44.760;37.726;2023-08-06T05:48:59;5.63;;;3.67;;
79025;SDS011;71097;44.760;37.726;2023-08-06T05:50:00;5.10;;;3.42;;
79025;SDS011;71097;44.760;37.726;2023-08-06T05:51:02;5.45;;;3.17;;
79025;SDS011;71097;44.760;37.726;2023-08-06T05:52:04;4.85;;;3.42;;
79025;SDS011;71097;44.760;37.726;2023-08-06T05:53:09;5.38;;;3.10;;
79025;SDS011;71097;44.760;37.726;2023-08-06T05:54:11;4.50;;;3.03;;
79025;SDS011;71097;44.760;37.726;2023-08-06T05:55:12;6.00;;;3.22;;
79025;SDS011;71097;44.760;37.726;2023-08-06T05:56:15;5.43;;;3.08;;
79025;SDS011;71097;44.760;37.726;2023-08-06T05:57:17;5.03;;;2.90;;
79025;SDS011;71097;44.760;37.726;2023-08-06T05:58:18;4.75;;;3.35;;
79025;SDS011;71097;44.760;37.726;2023-08-06T05:59:25;4.28;;;2.85;;
79025;SDS011;71097;44.760;37.726;2023-08-06T06:00:27;4.68;;;3.40;;
79025;SDS011;71097;44.760;37.726;2023-08-06T06:01:28;4.22;;;2.83;;
79025;SDS011;71097;44.760;37.726;2023-08-06T06:02:30;4.47;;;2.63;;
79025;SDS011;71097;44.760;37.726;2023-08-06T06:03:32;5.05;;;3.00;;
79025;SDS011;71097;44.760;37.726;2023-08-06T06:04:33;5.65;;;2.92;;
79025;SDS011;71097;44.760;37.726;2023-08-06T06:05:37;4.20;;;2.72;;
79025;SDS011;71097;44.760;37.726;2023-08-06T06:06:43;3.95;;;2.35;;
79025;SDS011;71097;44.760;37.726;2023-08-06T06:07:45;4.30;;;2.67;;
79025;SDS011;71097;44.760;37.726;2023-08-06T06:08:50;4.10;;;2.42;;
79025;SDS011;71097;44.760;37.726;2023-08-06T06:09:51;3.80;;;2.25;;
79025;SDS011;71097;44.760;37.726;2023-08-06T06:10:54;4.28;;;2.53;;
79025;SDS011;71097;44.760;37.726;2023-08-06T06:12:21;4.32;;;3.35;;
79025;SDS011;71097;44.760;37.726;2023-08-06T06:13:23;5.38;;;2.60;;
79025;SDS011;71097;44.760;37.726;2023-08-06T06:14:25;5.20;;;3.30;;
79025;SDS011;71097;44.760;37.726;2023-08-06T06:15:26;3.97;;;2.70;;
79025;SDS011;71097;44.760;37.726;2023-08-06T06:16:28;3.80;;;2.70;;
79025;SDS011;71097;44.760;37.726;2023-08-06T06:17:30;4.05;;;2.53;;
79025;SDS011;71097;44.760;37.726;2023-08-06T06:18:32;3.65;;;2.63;;
79025;SDS011;71097;44.760;37.726;2023-08-06T06:19:33;5.10;;;2.53;;
79025;SDS011;71097;44.760;37.726;2023-08-06T06:20:35;4.60;;;2.90;;
79025;SDS011;71097;44.760;37.726;2023-08-06T06:21:37;4.35;;;2.90;;
79025;SDS011;71097;44.760;37.726;2023-08-06T06:22:40;5.47;;;2.70;;
79025;SDS011;71097;44.760;37.726;2023-08-06T06:23:45;4.13;;;2.90;;
79025;SDS011;71097;44.760;37.726;2023-08-06T06:25:04;5.10;;;2.83;;
79025;SDS011;71097;44.760;37.726;2023-08-06T06:26:06;5.93;;;3.05;;